Maggie, Kentucky
Current Conditions -  °F | °C
As of 2:58 AM on Monday 20 Oct 2014 (Local Time) from KHOP Reporting Station
Scattered Clouds Scattered Clouds  
Wind Chill: 47°   Ceiling: Unl
Heat Index: 47°   Visibility: 8mi
Dew Point: 47°   Wind: 1mph
Humidity: 100%   Direction: 230°SW
Pressure: 30.06"   Gusts: NA
Location:  36.8031°N, 87.8159°W
Report Text: KHOP 200758Z AUTO 23001KT 8SM SCT150 SCT170 08/08 A3006 RMK AO2 SLP181 T00830083
Loading
Personal Weather Stations






























Interactive Weather Map
Tropical Storm Tracking
New forecast layout! Learn more

10-Day Weather Forecast

Advertisements
Track Severe Weather on mobile